sensor_id;sensor_type;location;lat;lon;timestamp;P1;durP1;ratioP1;P2;durP2;ratioP2
7440;SDS011;29616;51.950;8.572;2023-06-24T00:00:12;15.57;;;8.50;;
7440;SDS011;29616;51.950;8.572;2023-06-24T00:02:45;14.35;;;7.82;;
7440;SDS011;29616;51.950;8.572;2023-06-24T00:05:13;14.80;;;6.55;;
7440;SDS011;29616;51.950;8.572;2023-06-24T00:07:44;13.95;;;8.38;;
7440;SDS011;29616;51.950;8.572;2023-06-24T00:10:13;14.32;;;7.65;;
7440;SDS011;29616;51.950;8.572;2023-06-24T00:12:59;14.70;;;8.02;;
7440;SDS011;29616;51.950;8.572;2023-06-24T00:15:31;13.25;;;6.25;;
7440;SDS011;29616;51.950;8.572;2023-06-24T00:17:59;12.02;;;7.18;;
7440;SDS011;29616;51.950;8.572;2023-06-24T00:20:34;13.57;;;5.72;;
7440;SDS011;29616;51.950;8.572;2023-06-24T00:23:05;14.90;;;7.90;;
7440;SDS011;29616;51.950;8.572;2023-06-24T00:25:33;12.98;;;7.63;;
7440;SDS011;29616;51.950;8.572;2023-06-24T00:28:05;12.40;;;7.05;;
7440;SDS011;29616;51.950;8.572;2023-06-24T00:30:35;12.40;;;7.03;;
7440;SDS011;29616;51.950;8.572;2023-06-24T00:33:05;11.85;;;6.35;;
7440;SDS011;29616;51.950;8.572;2023-06-24T00:35:35;14.57;;;7.40;;
7440;SDS011;29616;51.950;8.572;2023-06-24T00:38:06;17.38;;;6.18;;
7440;SDS011;29616;51.950;8.572;2023-06-24T00:40:34;12.48;;;6.90;;
7440;SDS011;29616;51.950;8.572;2023-06-24T00:43:05;18.48;;;9.50;;
7440;SDS011;29616;51.950;8.572;2023-06-24T00:45:35;15.60;;;6.55;;
7440;SDS011;29616;51.950;8.572;2023-06-24T00:48:06;15.35;;;7.80;;
7440;SDS011;29616;51.950;8.572;2023-06-24T00:50:36;12.90;;;7.40;;
7440;SDS011;29616;51.950;8.572;2023-06-24T00:53:09;17.23;;;9.05;;
7440;SDS011;29616;51.950;8.572;2023-06-24T00:55:39;16.90;;;8.15;;
7440;SDS011;29616;51.950;8.572;2023-06-24T00:58:09;17.20;;;8.38;;
7440;SDS011;29616;51.950;8.572;2023-06-24T01:00:39;16.98;;;7.18;;
7440;SDS011;29616;51.950;8.572;2023-06-24T01:03:10;17.48;;;7.95;;
7440;SDS011;29616;51.950;8.572;2023-06-24T01:05:43;18.33;;;8.80;;
7440;SDS011;29616;51.950;8.572;2023-06-24T01:08:13;20.83;;;9.23;;
7440;SDS011;29616;51.950;8.572;2023-06-24T01:10:44;20.80;;;9.18;;
7440;SDS011;29616;51.950;8.572;2023-06-24T01:13:18;17.20;;;8.93;;
7440;SDS011;29616;51.950;8.572;2023-06-24T01:15:48;17.45;;;7.80;;
7440;SDS011;29616;51.950;8.572;2023-06-24T01:18:21;17.48;;;8.77;;
7440;SDS011;29616;51.950;8.572;2023-06-24T01:20:59;18.48;;;6.95;;
7440;SDS011;29616;51.950;8.572;2023-06-24T01:23:42;16.88;;;8.57;;
7440;SDS011;29616;51.950;8.572;2023-06-24T01:26:57;19.02;;;9.15;;
7440;SDS011;29616;51.950;8.572;2023-06-24T01:30:02;18.55;;;9.10;;
7440;SDS011;29616;51.950;8.572;2023-06-24T01:33:14;16.67;;;8.48;;
7440;SDS011;29616;51.950;8.572;2023-06-24T01:35:51;15.93;;;7.82;;
7440;SDS011;29616;51.950;8.572;2023-06-24T01:38:24;17.75;;;8.48;;
7440;SDS011;29616;51.950;8.572;2023-06-24T01:41:00;18.40;;;8.95;;
7440;SDS011;29616;51.950;8.572;2023-06-24T01:43:33;17.30;;;8.18;;
7440;SDS011;29616;51.950;8.572;2023-06-24T01:46:05;16.35;;;8.93;;
7440;SDS011;29616;51.950;8.572;2023-06-24T01:48:38;19.33;;;9.18;;
7440;SDS011;29616;51.950;8.572;2023-06-24T01:51:13;17.63;;;8.18;;
7440;SDS011;29616;51.950;8.572;2023-06-24T01:53:48;17.30;;;8.82;;
7440;SDS011;29616;51.950;8.572;2023-06-24T01:56:20;14.10;;;5.72;;
7440;SDS011;29616;51.950;8.572;2023-06-24T01:58:56;17.08;;;6.15;;
7440;SDS011;29616;51.950;8.572;2023-06-24T02:01:31;14.60;;;7.80;;
7440;SDS011;29616;51.950;8.572;2023-06-24T02:04:03;15.35;;;7.70;;
7440;SDS011;29616;51.950;8.572;2023-06-24T02:06:36;15.88;;;6.22;;
7440;SDS011;29616;51.950;8.572;2023-06-24T02:09:08;15.60;;;8.75;;
7440;SDS011;29616;51.950;8.572;2023-06-24T02:11:40;15.85;;;6.00;;
7440;SDS011;29616;51.950;8.572;2023-06-24T02:14:10;15.93;;;8.05;;
7440;SDS011;29616;51.950;8.572;2023-06-24T02:16:43;14.32;;;7.45;;
7440;SDS011;29616;51.950;8.572;2023-06-24T02:19:16;15.43;;;8.82;;
7440;SDS011;29616;51.950;8.572;2023-06-24T02:21:47;13.52;;;7.22;;
7440;SDS011;29616;51.950;8.572;2023-06-24T02:24:21;17.13;;;7.82;;
7440;SDS011;29616;51.950;8.572;2023-06-24T02:26:53;13.73;;;6.88;;
7440;SDS011;29616;51.950;8.572;2023-06-24T02:29:25;17.13;;;7.88;;
7440;SDS011;29616;51.950;8.572;2023-06-24T02:31:56;17.52;;;6.28;;
7440;SDS011;29616;51.950;8.572;2023-06-24T02:36:53;16.23;;;8.70;;
7440;SDS011;29616;51.950;8.572;2023-06-24T02:39:23;15.90;;;7.97;;
7440;SDS011;29616;51.950;8.572;2023-06-24T02:41:54;17.90;;;5.90;;
7440;SDS011;29616;51.950;8.572;2023-06-24T02:44:22;14.38;;;6.18;;
7440;SDS011;29616;51.950;8.572;2023-06-24T02:46:52;14.80;;;6.72;;
7440;SDS011;29616;51.950;8.572;2023-06-24T02:49:23;18.02;;;6.65;;
7440;SDS011;29616;51.950;8.572;2023-06-24T02:51:53;18.20;;;9.40;;
7440;SDS011;29616;51.950;8.572;2023-06-24T02:54:25;20.73;;;8.65;;
7440;SDS011;29616;51.950;8.572;2023-06-24T02:57:14;18.83;;;8.00;;
7440;SDS011;29616;51.950;8.572;2023-06-24T03:00:07;14.30;;;6.20;;
7440;SDS011;29616;51.950;8.572;2023-06-24T03:02:57;15.20;;;7.90;;
7440;SDS011;29616;51.950;8.572;2023-06-24T03:05:28;15.80;;;8.32;;
7440;SDS011;29616;51.950;8.572;2023-06-24T03:08:01;12.82;;;6.65;;
7440;SDS011;29616;51.950;8.572;2023-06-24T03:10:30;17.27;;;7.82;;
7440;SDS011;29616;51.950;8.572;2023-06-24T03:13:00;17.30;;;8.25;;
7440;SDS011;29616;51.950;8.572;2023-06-24T03:15:40;15.23;;;6.68;;
7440;SDS011;29616;51.950;8.572;2023-06-24T03:18:08;15.43;;;9.02;;
7440;SDS011;29616;51.950;8.572;2023-06-24T03:20:39;18.92;;;6.60;;
7440;SDS011;29616;51.950;8.572;2023-06-24T03:23:13;15.80;;;6.32;;
7440;SDS011;29616;51.950;8.572;2023-06-24T03:25:43;19.27;;;8.75;;
7440;SDS011;29616;51.950;8.572;2023-06-24T03:30:45;16.17;;;8.48;;
7440;SDS011;29616;51.950;8.572;2023-06-24T03:33:18;15.43;;;6.63;;
7440;SDS011;29616;51.950;8.572;2023-06-24T03:35:48;25.40;;;8.13;;
7440;SDS011;29616;51.950;8.572;2023-06-24T03:38:24;16.70;;;8.70;;
7440;SDS011;29616;51.950;8.572;2023-06-24T03:40:56;22.58;;;10.52;;
7440;SDS011;29616;51.950;8.572;2023-06-24T03:43:26;18.63;;;9.20;;
7440;SDS011;29616;51.950;8.572;2023-06-24T03:45:55;17.30;;;9.35;;
7440;SDS011;29616;51.950;8.572;2023-06-24T03:48:24;17.55;;;8.85;;
7440;SDS011;29616;51.950;8.572;2023-06-24T03:50:53;17.55;;;9.60;;
7440;SDS011;29616;51.950;8.572;2023-06-24T03:53:23;17.52;;;8.73;;
7440;SDS011;29616;51.950;8.572;2023-06-24T03:55:54;18.40;;;7.45;;
7440;SDS011;29616;51.950;8.572;2023-06-24T03:58:24;15.90;;;8.90;;
7440;SDS011;29616;51.950;8.572;2023-06-24T04:00:54;20.50;;;8.52;;
7440;SDS011;29616;51.950;8.572;2023-06-24T04:03:28;16.63;;;9.35;;
7440;SDS011;29616;51.950;8.572;2023-06-24T04:05:59;16.85;;;8.95;;
7440;SDS011;29616;51.950;8.572;2023-06-24T04:08:31;14.25;;;8.25;;
7440;SDS011;29616;51.950;8.572;2023-06-24T04:10:59;16.48;;;10.23;;
7440;SDS011;29616;51.950;8.572;2023-06-24T04:13:32;17.20;;;10.18;;
7440;SDS011;29616;51.950;8.572;2023-06-24T04:16:01;19.60;;;9.10;;
7440;SDS011;29616;51.950;8.572;2023-06-24T04:18:32;18.92;;;10.77;;
7440;SDS011;29616;51.950;8.572;2023-06-24T04:21:05;18.27;;;10.30;;
7440;SDS011;29616;51.950;8.572;2023-06-24T04:23:36;18.35;;;7.25;;
7440;SDS011;29616;51.950;8.572;2023-06-24T04:26:07;15.63;;;7.93;;
7440;SDS011;29616;51.950;8.572;2023-06-24T04:28:37;19.27;;;9.98;;
7440;SDS011;29616;51.950;8.572;2023-06-24T04:31:07;14.90;;;9.00;;
7440;SDS011;29616;51.950;8.572;2023-06-24T04:33:38;15.15;;;9.70;;
7440;SDS011;29616;51.950;8.572;2023-06-24T04:36:07;15.98;;;11.23;;
7440;SDS011;29616;51.950;8.572;2023-06-24T04:38:37;17.42;;;8.48;;
7440;SDS011;29616;51.950;8.572;2023-06-24T04:41:07;11.85;;;7.47;;
7440;SDS011;29616;51.950;8.572;2023-06-24T04:43:36;15.23;;;8.60;;
7440;SDS011;29616;51.950;8.572;2023-06-24T04:46:06;12.55;;;6.63;;
7440;SDS011;29616;51.950;8.572;2023-06-24T04:48:35;11.18;;;8.27;;
7440;SDS011;29616;51.950;8.572;2023-06-24T04:51:05;12.30;;;7.93;;
7440;SDS011;29616;51.950;8.572;2023-06-24T04:53:34;12.80;;;8.32;;
7440;SDS011;29616;51.950;8.572;2023-06-24T04:56:05;10.50;;;6.72;;
7440;SDS011;29616;51.950;8.572;2023-06-24T04:58:34;11.57;;;7.05;;
7440;SDS011;29616;51.950;8.572;2023-06-24T05:01:04;10.70;;;7.38;;
7440;SDS011;29616;51.950;8.572;2023-06-24T05:03:34;10.25;;;6.68;;
7440;SDS011;29616;51.950;8.572;2023-06-24T05:06:04;11.02;;;7.35;;
7440;SDS011;29616;51.950;8.572;2023-06-24T05:08:34;10.02;;;7.20;;
7440;SDS011;29616;51.950;8.572;2023-06-24T05:11:04;10.77;;;7.57;;
7440;SDS011;29616;51.950;8.572;2023-06-24T05:13:34;11.35;;;7.45;;
7440;SDS011;29616;51.950;8.572;2023-06-24T05:18:31;12.63;;;7.28;;
7440;SDS011;29616;51.950;8.572;2023-06-24T05:21:00;10.30;;;7.10;;
7440;SDS011;29616;51.950;8.572;2023-06-24T05:23:30;12.05;;;8.77;;
7440;SDS011;29616;51.950;8.572;2023-06-24T05:25:59;9.70;;;6.40;;
7440;SDS011;29616;51.950;8.572;2023-06-24T05:28:33;9.60;;;6.30;;
7440;SDS011;29616;51.950;8.572;2023-06-24T05:31:01;10.25;;;7.55;;
7440;SDS011;29616;51.950;8.572;2023-06-24T05:33:33;10.48;;;6.57;;
7440;SDS011;29616;51.950;8.572;2023-06-24T05:36:01;10.70;;;7.50;;
7440;SDS011;29616;51.950;8.572;2023-06-24T05:38:32;10.35;;;5.88;;
7440;SDS011;29616;51.950;8.572;2023-06-24T05:41:02;8.50;;;6.57;;
7440;SDS011;29616;51.950;8.572;2023-06-24T05:43:33;9.02;;;7.30;;
7440;SDS011;29616;51.950;8.572;2023-06-24T05:46:04;9.10;;;6.25;;
7440;SDS011;29616;51.950;8.572;2023-06-24T05:48:34;8.38;;;5.15;;
7440;SDS011;29616;51.950;8.572;2023-06-24T05:51:02;10.68;;;7.82;;
7440;SDS011;29616;51.950;8.572;2023-06-24T05:53:30;11.43;;;7.78;;
7440;SDS011;29616;51.950;8.572;2023-06-24T05:56:00;8.43;;;6.93;;
7440;SDS011;29616;51.950;8.572;2023-06-24T05:58:29;11.48;;;7.72;;
7440;SDS011;29616;51.950;8.572;2023-06-24T06:00:59;11.50;;;6.60;;
7440;SDS011;29616;51.950;8.572;2023-06-24T06:03:29;11.55;;;8.40;;
7440;SDS011;29616;51.950;8.572;2023-06-24T06:06:00;10.52;;;7.47;;
7440;SDS011;29616;51.950;8.572;2023-06-24T06:08:29;9.48;;;7.65;;
7440;SDS011;29616;51.950;8.572;2023-06-24T06:10:57;9.40;;;7.25;;
7440;SDS011;29616;51.950;8.572;2023-06-24T06:13:26;11.55;;;8.15;;
7440;SDS011;29616;51.950;8.572;2023-06-24T06:15:58;9.85;;;7.90;;
7440;SDS011;29616;51.950;8.572;2023-06-24T06:18:28;9.55;;;7.65;;
7440;SDS011;29616;51.950;8.572;2023-06-24T06:20:57;10.35;;;5.35;;
7440;SDS011;29616;51.950;8.572;2023-06-24T06:23:26;8.82;;;7.07;;
7440;SDS011;29616;51.950;8.572;2023-06-24T06:25:55;9.60;;;6.07;;
7440;SDS011;29616;51.950;8.572;2023-06-24T06:28:29;10.95;;;8.20;;
7440;SDS011;29616;51.950;8.572;2023-06-24T06:30:58;9.57;;;7.55;;
7440;SDS011;29616;51.950;8.572;2023-06-24T06:33:26;10.20;;;7.78;;
7440;SDS011;29616;51.950;8.572;2023-06-24T06:35:56;9.68;;;7.68;;
7440;SDS011;29616;51.950;8.572;2023-06-24T06:38:26;9.70;;;7.85;;
7440;SDS011;29616;51.950;8.572;2023-06-24T06:40:56;11.30;;;8.18;;
7440;SDS011;29616;51.950;8.572;2023-06-24T06:43:26;9.63;;;7.30;;
7440;SDS011;29616;51.950;8.572;2023-06-24T06:45:54;10.48;;;8.02;;
7440;SDS011;29616;51.950;8.572;2023-06-24T06:48:26;10.10;;;8.57;;
7440;SDS011;29616;51.950;8.572;2023-06-24T06:50:55;10.85;;;8.18;;
7440;SDS011;29616;51.950;8.572;2023-06-24T06:53:26;9.63;;;7.80;;
7440;SDS011;29616;51.950;8.572;2023-06-24T06:55:54;9.13;;;7.57;;
7440;SDS011;29616;51.950;8.572;2023-06-24T06:58:25;10.25;;;9.13;;
7440;SDS011;29616;51.950;8.572;2023-06-24T07:00:57;11.30;;;8.57;;
7440;SDS011;29616;51.950;8.572;2023-06-24T07:03:30;10.02;;;8.60;;
7440;SDS011;29616;51.950;8.572;2023-06-24T07:06:01;9.20;;;8.18;;
7440;SDS011;29616;51.950;8.572;2023-06-24T07:08:30;9.88;;;6.70;;
7440;SDS011;29616;51.950;8.572;2023-06-24T07:10:59;11.65;;;7.97;;
7440;SDS011;29616;51.950;8.572;2023-06-24T07:13:29;9.07;;;7.50;;
7440;SDS011;29616;51.950;8.572;2023-06-24T07:16:00;10.52;;;7.78;;
7440;SDS011;29616;51.950;8.572;2023-06-24T07:18:31;12.27;;;7.80;;
7440;SDS011;29616;51.950;8.572;2023-06-24T07:21:00;13.00;;;8.35;;
7440;SDS011;29616;51.950;8.572;2023-06-24T07:23:31;9.70;;;6.57;;
7440;SDS011;29616;51.950;8.572;2023-06-24T07:25:59;11.27;;;8.30;;
7440;SDS011;29616;51.950;8.572;2023-06-24T07:28:31;11.30;;;8.55;;
7440;SDS011;29616;51.950;8.572;2023-06-24T07:31:01;11.68;;;8.07;;
7440;SDS011;29616;51.950;8.572;2023-06-24T07:33:31;10.38;;;9.38;;
7440;SDS011;29616;51.950;8.572;2023-06-24T07:36:00;12.68;;;7.80;;
7440;SDS011;29616;51.950;8.572;2023-06-24T07:38:31;9.82;;;6.90;;
7440;SDS011;29616;51.950;8.572;2023-06-24T07:40:59;8.85;;;7.88;;
7440;SDS011;29616;51.950;8.572;2023-06-24T07:43:29;8.63;;;7.28;;
7440;SDS011;29616;51.950;8.572;2023-06-24T07:45:57;11.23;;;5.30;;
7440;SDS011;29616;51.950;8.572;2023-06-24T07:48:25;9.70;;;5.53;;
7440;SDS011;29616;51.950;8.572;2023-06-24T07:50:55;9.02;;;5.53;;
7440;SDS011;29616;51.950;8.572;2023-06-24T07:53:27;9.80;;;7.40;;
7440;SDS011;29616;51.950;8.572;2023-06-24T07:55:56;9.50;;;7.70;;
7440;SDS011;29616;51.950;8.572;2023-06-24T07:58:25;10.48;;;8.18;;
7440;SDS011;29616;51.950;8.572;2023-06-24T08:00:54;11.60;;;7.03;;
7440;SDS011;29616;51.950;8.572;2023-06-24T08:03:23;8.88;;;7.45;;
7440;SDS011;29616;51.950;8.572;2023-06-24T08:05:52;9.70;;;7.72;;
7440;SDS011;29616;51.950;8.572;2023-06-24T08:08:22;8.77;;;7.97;;
7440;SDS011;29616;51.950;8.572;2023-06-24T08:10:51;7.07;;;6.38;;
7440;SDS011;29616;51.950;8.572;2023-06-24T08:13:20;7.25;;;6.45;;
7440;SDS011;29616;51.950;8.572;2023-06-24T08:15:50;7.22;;;6.53;;
7440;SDS011;29616;51.950;8.572;2023-06-24T08:18:20;11.00;;;6.75;;
7440;SDS011;29616;51.950;8.572;2023-06-24T08:20:49;7.68;;;7.00;;
7440;SDS011;29616;51.950;8.572;2023-06-24T08:23:18;6.95;;;5.68;;
7440;SDS011;29616;51.950;8.572;2023-06-24T08:25:49;9.45;;;7.35;;
7440;SDS011;29616;51.950;8.572;2023-06-24T08:28:26;7.15;;;6.28;;
7440;SDS011;29616;51.950;8.572;2023-06-24T08:30:56;8.23;;;7.43;;
7440;SDS011;29616;51.950;8.572;2023-06-24T08:33:24;6.55;;;5.95;;
7440;SDS011;29616;51.950;8.572;2023-06-24T08:35:52;6.82;;;5.82;;
7440;SDS011;29616;51.950;8.572;2023-06-24T08:38:22;5.97;;;4.15;;
7440;SDS011;29616;51.950;8.572;2023-06-24T08:40:52;7.20;;;6.50;;
7440;SDS011;29616;51.950;8.572;2023-06-24T08:43:22;8.70;;;7.22;;
7440;SDS011;29616;51.950;8.572;2023-06-24T08:45:53;7.15;;;6.45;;
7440;SDS011;29616;51.950;8.572;2023-06-24T08:48:23;6.97;;;5.88;;
7440;SDS011;29616;51.950;8.572;2023-06-24T08:50:54;5.82;;;5.22;;
7440;SDS011;29616;51.950;8.572;2023-06-24T08:53:26;7.32;;;6.63;;
7440;SDS011;29616;51.950;8.572;2023-06-24T08:55:58;6.72;;;5.55;;
7440;SDS011;29616;51.950;8.572;2023-06-24T08:58:28;6.22;;;5.60;;
7440;SDS011;29616;51.950;8.572;2023-06-24T09:00:57;7.65;;;6.60;;
7440;SDS011;29616;51.950;8.572;2023-06-24T09:03:29;6.65;;;6.05;;
7440;SDS011;29616;51.950;8.572;2023-06-24T09:05:59;8.50;;;6.10;;
7440;SDS011;29616;51.950;8.572;2023-06-24T09:08:29;9.32;;;6.65;;
7440;SDS011;29616;51.950;8.572;2023-06-24T09:10:59;7.20;;;4.03;;
7440;SDS011;29616;51.950;8.572;2023-06-24T09:13:33;7.18;;;5.88;;
7440;SDS011;29616;51.950;8.572;2023-06-24T09:16:12;6.95;;;6.25;;
7440;SDS011;29616;51.950;8.572;2023-06-24T09:18:47;6.43;;;5.78;;
7440;SDS011;29616;51.950;8.572;2023-06-24T09:21:23;6.90;;;6.18;;
7440;SDS011;29616;51.950;8.572;2023-06-24T09:23:53;7.07;;;5.85;;
7440;SDS011;29616;51.950;8.572;2023-06-24T09:26:25;6.78;;;5.78;;
7440;SDS011;29616;51.950;8.572;2023-06-24T09:28:57;7.18;;;6.47;;
7440;SDS011;29616;51.950;8.572;2023-06-24T09:31:26;6.10;;;5.25;;
7440;SDS011;29616;51.950;8.572;2023-06-24T09:33:56;6.72;;;5.45;;
7440;SDS011;29616;51.950;8.572;2023-06-24T09:36:27;7.05;;;5.60;;
7440;SDS011;29616;51.950;8.572;2023-06-24T09:38:55;6.28;;;5.43;;
7440;SDS011;29616;51.950;8.572;2023-06-24T09:41:49;7.03;;;6.32;;
7440;SDS011;29616;51.950;8.572;2023-06-24T09:44:18;5.15;;;3.42;;
7440;SDS011;29616;51.950;8.572;2023-06-24T09:46:48;6.60;;;5.78;;
7440;SDS011;29616;51.950;8.572;2023-06-24T09:49:19;7.60;;;6.90;;
7440;SDS011;29616;51.950;8.572;2023-06-24T09:51:49;7.40;;;6.70;;
7440;SDS011;29616;51.950;8.572;2023-06-24T09:54:25;9.45;;;7.43;;
7440;SDS011;29616;51.950;8.572;2023-06-24T09:57:02;6.43;;;5.82;;
7440;SDS011;29616;51.950;8.572;2023-06-24T09:59:37;6.55;;;5.65;;
7440;SDS011;29616;51.950;8.572;2023-06-24T10:02:09;7.97;;;5.30;;
7440;SDS011;29616;51.950;8.572;2023-06-24T10:04:45;8.65;;;5.80;;
7440;SDS011;29616;51.950;8.572;2023-06-24T10:07:14;7.93;;;6.20;;
7440;SDS011;29616;51.950;8.572;2023-06-24T10:09:45;7.63;;;6.90;;
7440;SDS011;29616;51.950;8.572;2023-06-24T10:12:17;9.13;;;6.88;;
7440;SDS011;29616;51.950;8.572;2023-06-24T10:14:47;9.93;;;8.65;;
7440;SDS011;29616;51.950;8.572;2023-06-24T10:17:18;8.13;;;7.25;;
7440;SDS011;29616;51.950;8.572;2023-06-24T10:19:46;9.88;;;7.90;;
7440;SDS011;29616;51.950;8.572;2023-06-24T10:22:16;10.30;;;9.13;;
7440;SDS011;29616;51.950;8.572;2023-06-24T10:24:45;9.35;;;6.82;;
7440;SDS011;29616;51.950;8.572;2023-06-24T10:27:18;8.30;;;5.75;;
7440;SDS011;29616;51.950;8.572;2023-06-24T10:29:49;9.38;;;7.25;;
7440;SDS011;29616;51.950;8.572;2023-06-24T10:32:21;9.75;;;8.07;;
7440;SDS011;29616;51.950;8.572;2023-06-24T10:34:54;9.70;;;8.50;;
7440;SDS011;29616;51.950;8.572;2023-06-24T10:37:25;10.70;;;8.50;;
7440;SDS011;29616;51.950;8.572;2023-06-24T10:39:58;8.20;;;5.43;;
7440;SDS011;29616;51.950;8.572;2023-06-24T10:42:42;10.10;;;8.60;;
7440;SDS011;29616;51.950;8.572;2023-06-24T10:45:14;9.15;;;8.02;;
7440;SDS011;29616;51.950;8.572;2023-06-24T10:47:47;8.88;;;8.07;;
7440;SDS011;29616;51.950;8.572;2023-06-24T10:50:20;9.02;;;7.35;;
7440;SDS011;29616;51.950;8.572;2023-06-24T10:52:52;9.35;;;8.10;;
7440;SDS011;29616;51.950;8.572;2023-06-24T10:55:23;10.75;;;9.27;;
7440;SDS011;29616;51.950;8.572;2023-06-24T10:57:54;9.15;;;7.88;;
7440;SDS011;29616;51.950;8.572;2023-06-24T11:00:39;9.02;;;7.90;;
7440;SDS011;29616;51.950;8.572;2023-06-24T11:03:10;9.10;;;7.80;;
7440;SDS011;29616;51.950;8.572;2023-06-24T11:05:40;9.10;;;8.20;;
7440;SDS011;29616;51.950;8.572;2023-06-24T11:08:10;9.32;;;7.85;;
7440;SDS011;29616;51.950;8.572;2023-06-24T11:10:42;7.93;;;7.13;;
7440;SDS011;29616;51.950;8.572;2023-06-24T11:13:15;7.95;;;6.63;;
7440;SDS011;29616;51.950;8.572;2023-06-24T11:18:18;7.03;;;6.13;;
7440;SDS011;29616;51.950;8.572;2023-06-24T11:20:46;9.07;;;7.85;;
7440;SDS011;29616;51.950;8.572;2023-06-24T11:23:16;9.00;;;8.13;;
7440;SDS011;29616;51.950;8.572;2023-06-24T11:25:44;6.50;;;5.88;;
7440;SDS011;29616;51.950;8.572;2023-06-24T11:28:16;9.57;;;7.82;;
7440;SDS011;29616;51.950;8.572;2023-06-24T11:30:50;8.52;;;6.53;;
7440;SDS011;29616;51.950;8.572;2023-06-24T11:33:26;8.65;;;7.85;;
7440;SDS011;29616;51.950;8.572;2023-06-24T11:35:56;8.60;;;7.80;;
7440;SDS011;29616;51.950;8.572;2023-06-24T11:38:27;8.40;;;6.97;;
7440;SDS011;29616;51.950;8.572;2023-06-24T11:41:00;7.32;;;4.65;;
7440;SDS011;29616;51.950;8.572;2023-06-24T11:43:31;7.75;;;6.95;;
7440;SDS011;29616;51.950;8.572;2023-06-24T11:46:01;10.65;;;8.38;;
7440;SDS011;29616;51.950;8.572;2023-06-24T11:48:38;8.13;;;7.30;;
7440;SDS011;29616;51.950;8.572;2023-06-24T11:51:12;8.85;;;6.97;;
7440;SDS011;29616;51.950;8.572;2023-06-24T11:53:41;5.90;;;4.57;;
7440;SDS011;29616;51.950;8.572;2023-06-24T11:56:12;7.75;;;6.75;;
7440;SDS011;29616;51.950;8.572;2023-06-24T11:58:42;8.43;;;4.68;;
7440;SDS011;29616;51.950;8.572;2023-06-24T12:01:11;7.65;;;6.63;;
7440;SDS011;29616;51.950;8.572;2023-06-24T12:03:41;8.32;;;7.00;;
7440;SDS011;29616;51.950;8.572;2023-06-24T12:06:12;8.48;;;7.65;;
7440;SDS011;29616;51.950;8.572;2023-06-24T12:08:40;7.85;;;6.93;;
7440;SDS011;29616;51.950;8.572;2023-06-24T12:11:19;7.22;;;4.93;;
7440;SDS011;29616;51.950;8.572;2023-06-24T12:13:49;7.65;;;6.80;;
7440;SDS011;29616;51.950;8.572;2023-06-24T12:16:20;6.57;;;4.68;;
7440;SDS011;29616;51.950;8.572;2023-06-24T12:18:50;7.32;;;5.75;;
7440;SDS011;29616;51.950;8.572;2023-06-24T12:21:19;8.15;;;6.35;;
7440;SDS011;29616;51.950;8.572;2023-06-24T12:23:48;7.18;;;6.32;;
7440;SDS011;29616;51.950;8.572;2023-06-24T12:26:18;7.35;;;5.10;;
7440;SDS011;29616;51.950;8.572;2023-06-24T12:28:53;7.13;;;6.35;;
7440;SDS011;29616;51.950;8.572;2023-06-24T12:31:22;8.32;;;7.45;;
7440;SDS011;29616;51.950;8.572;2023-06-24T12:33:52;7.80;;;6.38;;
7440;SDS011;29616;51.950;8.572;2023-06-24T12:36:22;8.73;;;7.80;;
7440;SDS011;29616;51.950;8.572;2023-06-24T12:38:52;7.85;;;7.07;;
7440;SDS011;29616;51.950;8.572;2023-06-24T12:41:20;9.10;;;8.23;;
7440;SDS011;29616;51.950;8.572;2023-06-24T12:43:52;8.13;;;7.32;;
7440;SDS011;29616;51.950;8.572;2023-06-24T12:46:21;8.13;;;7.32;;
7440;SDS011;29616;51.950;8.572;2023-06-24T12:48:52;8.20;;;7.38;;
7440;SDS011;29616;51.950;8.572;2023-06-24T12:51:21;9.05;;;6.28;;
7440;SDS011;29616;51.950;8.572;2023-06-24T12:53:49;6.70;;;6.10;;
7440;SDS011;29616;51.950;8.572;2023-06-24T12:56:19;6.80;;;6.10;;
7440;SDS011;29616;51.950;8.572;2023-06-24T12:58:49;7.28;;;6.57;;
7440;SDS011;29616;51.950;8.572;2023-06-24T13:01:18;9.43;;;8.57;;
7440;SDS011;29616;51.950;8.572;2023-06-24T13:03:48;7.85;;;7.05;;
7440;SDS011;29616;51.950;8.572;2023-06-24T13:06:17;8.80;;;7.93;;
7440;SDS011;29616;51.950;8.572;2023-06-24T13:08:46;9.50;;;7.32;;
7440;SDS011;29616;51.950;8.572;2023-06-24T13:11:14;6.53;;;4.97;;
7440;SDS011;29616;51.950;8.572;2023-06-24T13:13:43;8.18;;;7.40;;
7440;SDS011;29616;51.950;8.572;2023-06-24T13:16:13;8.60;;;7.80;;
7440;SDS011;29616;51.950;8.572;2023-06-24T13:18:44;7.53;;;6.82;;
7440;SDS011;29616;51.950;8.572;2023-06-24T13:21:13;8.05;;;7.28;;
7440;SDS011;29616;51.950;8.572;2023-06-24T13:23:43;7.10;;;6.30;;
7440;SDS011;29616;51.950;8.572;2023-06-24T13:26:15;8.52;;;7.68;;
7440;SDS011;29616;51.950;8.572;2023-06-24T13:28:45;9.70;;;8.80;;
7440;SDS011;29616;51.950;8.572;2023-06-24T13:31:15;7.63;;;6.65;;
7440;SDS011;29616;51.950;8.572;2023-06-24T13:33:46;8.02;;;7.28;;
7440;SDS011;29616;51.950;8.572;2023-06-24T13:36:25;7.07;;;6.45;;
7440;SDS011;29616;51.950;8.572;2023-06-24T13:38:58;8.15;;;7.32;;
7440;SDS011;29616;51.950;8.572;2023-06-24T13:41:27;8.10;;;7.30;;
7440;SDS011;29616;51.950;8.572;2023-06-24T13:43:59;8.18;;;6.65;;
7440;SDS011;29616;51.950;8.572;2023-06-24T13:46:29;8.68;;;7.88;;
7440;SDS011;29616;51.950;8.572;2023-06-24T13:49:02;8.85;;;8.15;;
7440;SDS011;29616;51.950;8.572;2023-06-24T13:51:34;8.07;;;7.38;;
7440;SDS011;29616;51.950;8.572;2023-06-24T13:54:04;8.02;;;7.28;;
7440;SDS011;29616;51.950;8.572;2023-06-24T13:56:34;8.30;;;7.50;;
7440;SDS011;29616;51.950;8.572;2023-06-24T13:59:02;7.72;;;7.03;;
7440;SDS011;29616;51.950;8.572;2023-06-24T14:01:32;7.95;;;7.22;;
7440;SDS011;29616;51.950;8.572;2023-06-24T14:04:01;9.40;;;8.05;;
7440;SDS011;29616;51.950;8.572;2023-06-24T14:06:31;7.95;;;7.25;;
7440;SDS011;29616;51.950;8.572;2023-06-24T14:09:01;8.25;;;7.28;;
7440;SDS011;29616;51.950;8.572;2023-06-24T14:11:32;8.68;;;7.65;;
7440;SDS011;29616;51.950;8.572;2023-06-24T14:14:00;8.40;;;7.60;;
7440;SDS011;29616;51.950;8.572;2023-06-24T14:16:28;8.98;;;7.53;;
7440;SDS011;29616;51.950;8.572;2023-06-24T14:18:56;8.85;;;8.05;;
7440;SDS011;29616;51.950;8.572;2023-06-24T14:21:27;6.53;;;5.88;;
7440;SDS011;29616;51.950;8.572;2023-06-24T14:23:58;9.00;;;8.07;;
7440;SDS011;29616;51.950;8.572;2023-06-24T14:26:41;7.75;;;7.03;;
7440;SDS011;29616;51.950;8.572;2023-06-24T14:29:11;8.15;;;7.35;;
7440;SDS011;29616;51.950;8.572;2023-06-24T14:31:39;8.32;;;7.63;;
7440;SDS011;29616;51.950;8.572;2023-06-24T14:34:09;7.68;;;6.97;;
7440;SDS011;29616;51.950;8.572;2023-06-24T14:36:39;10.55;;;9.63;;
7440;SDS011;29616;51.950;8.572;2023-06-24T14:39:08;5.97;;;4.85;;
7440;SDS011;29616;51.950;8.572;2023-06-24T14:41:38;7.78;;;5.70;;
7440;SDS011;29616;51.950;8.572;2023-06-24T14:44:08;7.43;;;5.65;;
7440;SDS011;29616;51.950;8.572;2023-06-24T14:46:38;9.15;;;8.10;;
7440;SDS011;29616;51.950;8.572;2023-06-24T14:49:07;9.07;;;8.18;;
7440;SDS011;29616;51.950;8.572;2023-06-24T14:51:37;9.35;;;8.45;;
7440;SDS011;29616;51.950;8.572;2023-06-24T14:54:06;10.10;;;9.20;;
7440;SDS011;29616;51.950;8.572;2023-06-24T14:56:35;8.18;;;7.38;;
7440;SDS011;29616;51.950;8.572;2023-06-24T14:59:06;8.60;;;7.80;;
7440;SDS011;29616;51.950;8.572;2023-06-24T15:01:36;8.40;;;7.70;;
7440;SDS011;29616;51.950;8.572;2023-06-24T15:04:05;8.65;;;7.78;;
7440;SDS011;29616;51.950;8.572;2023-06-24T15:06:36;8.98;;;8.18;;
7440;SDS011;29616;51.950;8.572;2023-06-24T15:09:05;7.28;;;6.55;;
7440;SDS011;29616;51.950;8.572;2023-06-24T15:11:36;9.65;;;7.93;;
7440;SDS011;29616;51.950;8.572;2023-06-24T15:14:05;9.30;;;8.50;;
7440;SDS011;29616;51.950;8.572;2023-06-24T15:16:35;8.82;;;7.97;;
7440;SDS011;29616;51.950;8.572;2023-06-24T15:19:05;10.10;;;8.07;;
7440;SDS011;29616;51.950;8.572;2023-06-24T15:21:34;8.55;;;7.85;;
7440;SDS011;29616;51.950;8.572;2023-06-24T15:24:03;8.30;;;7.45;;
7440;SDS011;29616;51.950;8.572;2023-06-24T15:26:34;9.25;;;8.38;;
7440;SDS011;29616;51.950;8.572;2023-06-24T15:29:04;8.13;;;7.47;;